Latest Weather Observations for Learmonth

IDW60801

Issued at 10:05 am WST Thursday 23 October 2014 (issued every 30 minutes, with the page automatically refreshed every 10 minutes)

About weather observations | Map of weather stations | Latest weather observations for WA | Other Formats
Station Details ID: 005007 Name: LEARMONTH AIRPORT Lat: -22.24 Lon: 114.10 Height: 5.0 m
Data from the previous 72 hours. | See also: Recent months at Learmonth
Date/Time
WST
Temp
°C
App
Temp
°C
Dew
Point
Rel
Hum
%
Delta-T
°C
Wind Press
QNH
hPa
Press
MSL
hPa
Rain
since 9 am
mm
Dir
 
Spd
km/h
Gust
km/h
Spd
kts
Gust
kts
23/10:00am 26.2 21.8 12.8 43 7.8 SSE 28 39 15 21 1016.3 - 0.0
23/09:30am 25.5 21.5 13.1 46 7.2 S 26 35 14 19 1016.6 - 0.0
23/09:00am 25.1 20.8 13.2 47 6.9 S 28 37 15 20 1016.6 1016.5 0.0
23/08:30am 23.4 18.9 13.8 54 5.6 S 30 39 16 21 1016.7 - 0.0
23/08:00am 22.4 17.7 14.2 59 4.8 S 32 41 17 22 1016.7 - 0.0
23/07:30am 21.3 16.8 14.8 66 3.8 S 32 43 17 23 1016.7 - 0.0
23/07:00am 20.1 17.4 15.5 75 2.7 S 24 30 13 16 1016.7 - 0.0
23/06:30am 18.8 16.8 15.6 82 1.9 S 20 28 11 15 1016.5 - 0.0
23/06:00am 18.3 16.4 15.8 85 1.5 S 20 24 11 13 1016.4 1016.3 0.0
23/05:30am 18.3 17.0 15.9 86 1.4 SSW 17 20 9 11 1016.4 - 0.0
23/05:00am 18.1 17.2 15.9 87 1.3 SSW 15 20 8 11 1016.1 - 0.0
23/04:30am 18.0 16.6 15.6 86 1.4 SSW 17 20 9 11 1016.0 - 0.0
23/04:00am 18.0 16.9 15.4 85 1.5 SW 15 19 8 10 1015.9 - 0.0
23/03:30am 18.0 16.9 15.3 84 1.6 SSW 15 22 8 12 1015.5 - 0.0
23/03:00am 18.2 17.0 15.1 82 1.8 SSW 15 19 8 10 1015.5 1015.4 0.0
23/02:30am 18.3 16.7 15.0 81 1.9 SSW 17 22 9 12 1015.7 - 0.0
23/02:00am 18.4 17.6 15.0 80 2.0 SW 13 15 7 8 1016.1 - 0.0
23/01:30am 18.5 17.6 14.9 79 2.1 SSW 13 17 7 9 1016.2 - 0.0
23/01:00am 19.5 17.9 14.9 75 2.7 SSW 17 22 9 12 1016.5 - 0.0
23/12:30am 20.0 17.4 14.9 72 3.0 SSW 22 32 12 17 1016.2 - 0.0
23/12:00am 20.1 17.2 15.0 72 3.0 SSW 24 32 13 17 1016.1 1016.0 0.0
 
Date/Time
WST
Temp
°C
App
Temp
°C
Dew
Point
Rel
Hum
%
Delta-T
°C
Wind Press
QNH
hPa
Press
MSL
hPa
Rain
since 9 am
mm
Dir
 
Spd
km/h
Gust
km/h
Spd
kts
Gust
kts
22/11:30pm 20.1 17.2 15.2 73 2.9 SSW 24 33 13 18 1016.1 - 0.0
22/11:00pm 20.3 16.8 15.6 74 2.8 SSW 28 35 15 19 1016.3 - 0.0
22/10:30pm 20.6 17.2 15.7 73 2.9 SSW 28 37 15 20 1016.7 - 0.0
22/10:00pm 20.8 17.3 15.6 72 3.1 SSW 28 35 15 19 1016.7 - 0.0
22/09:30pm 21.0 17.5 15.6 71 3.2 SSW 28 35 15 19 1016.8 - 0.0
22/09:00pm 21.3 17.4 15.6 70 3.4 SSW 30 39 16 21 1016.7 1016.6 0.0
22/08:30pm 21.5 18.3 15.3 68 3.7 SSW 26 33 14 18 1016.6 - 0.0
22/08:00pm 21.9 18.1 14.8 64 4.2 SSW 28 33 15 18 1016.4 - 0.0
22/07:30pm 22.2 18.6 14.1 60 4.7 SSW 26 35 14 19 1016.2 - 0.0
22/07:00pm 23.0 18.2 11.8 49 6.3 SSW 28 37 15 20 1015.9 - 0.0
22/06:30pm 23.7 19.8 14.4 56 5.5 SSW 28 37 15 20 1015.6 - 0.0
22/06:00pm 24.3 20.1 13.5 51 6.3 SSW 28 37 15 20 1015.3 1015.2 0.0
22/05:30pm 25.4 19.9 11.9 43 7.7 SSW 32 41 17 22 1015.2 - 0.0
22/05:00pm 26.2 20.5 11.9 41 8.2 SSW 33 41 18 22 1014.9 - 0.0
22/04:30pm 27.7 21.9 10.7 34 9.6 SSW 32 39 17 21 1014.7 - 0.0
22/04:00pm 28.5 24.2 11.9 35 9.6 SSW 26 35 14 19 1014.8 - 0.0
22/03:30pm 30.0 26.1 12.2 33 10.4 SSW 24 35 13 19 1014.7 - 0.0
22/03:00pm 30.1 26.1 11.9 32 10.6 SW 24 33 13 18 1014.8 1014.7 0.0
22/02:30pm 29.9 25.9 11.8 32 10.5 SSW 24 33 13 18 1015.1 - 0.0
22/02:00pm 29.5 25.5 11.7 33 10.3 SSW 24 32 13 17 1015.5 - 0.0
22/01:30pm 29.5 25.1 11.7 33 10.3 SSW 26 33 14 18 1015.7 - 0.0
22/01:00pm 30.9 26.6 12.2 31 11.0 SW 26 35 14 19 1016.0 - 0.0
22/12:30pm 30.1 27.3 11.4 31 10.8 SW 17 28 9 15 1016.2 - 0.0
22/12:00pm 29.1 25.9 11.3 33 10.2 S 19 26 10 14 1016.8 1016.7 0.0
22/11:30am 29.1 25.6 10.9 32 10.4 SW 20 32 11 17 1016.9 - 0.0
22/11:00am 27.2 23.9 12.8 41 8.4 S 22 32 12 17 1017.5 - 0.0
22/10:30am 26.7 23.6 13.4 43 7.8 SSW 22 28 12 15 1017.7 - 0.0
22/10:00am 26.2 23.5 14.7 49 6.9 S 22 32 12 17 1018.0 - 0.0
22/09:30am 24.2 21.2 14.8 55 5.6 S 24 33 13 18 1018.0 - 0.0
22/09:00am 23.3 21.0 15.6 62 4.6 S 22 30 12 16 1018.2 1018.1 0.0
22/08:30am 22.5 19.5 15.8 66 4.0 S 26 35 14 19 1018.0 - 0.0
22/08:00am 21.5 19.8 15.8 70 3.4 S 19 24 10 13 1018.1 - 0.0
22/07:30am 20.6 19.3 15.9 74 2.8 S 17 24 9 13 1017.7 - 0.0
22/07:00am 19.6 19.1 15.9 79 2.2 SSW 13 19 7 10 1017.8 - 0.0
22/06:30am 17.9 18.5 15.7 87 1.3 SW 7 9 4 5 1017.6 - 0.0
22/06:00am 17.1 17.5 15.2 88 1.1 SW 7 9 4 5 1017.4 1017.3 0.0
22/05:30am 17.1 17.1 15.2 88 1.1 SSW 9 11 5 6 1016.8 - 0.0
22/05:00am 17.3 16.9 15.2 87 1.2 S 11 15 6 8 1016.2 - 0.0
22/04:30am 18.1 16.7 15.5 85 1.5 S 17 24 9 13 1015.9 - 0.0
22/04:00am 17.6 16.2 15.6 88 1.2 S 17 20 9 11 1015.8 - 0.0
22/03:30am 16.3 15.3 14.7 90 0.9 SSW 13 15 7 8 1015.7 - 0.0
22/03:00am 16.7 15.9 15.0 90 1.0 SSW 13 13 7 7 1015.8 1015.7 0.0
22/02:30am 16.5 15.6 14.9 90 0.9 SSW 13 17 7 9 1016.0 - 0.0
22/02:00am 16.7 15.9 15.0 90 1.0 SSW 13 15 7 8 1016.3 - 0.0
22/01:30am 16.6 15.7 14.9 90 1.0 S 13 15 7 8 1016.7 - 0.0
22/01:00am 17.0 16.1 14.9 87 1.2 S 13 15 7 8 1017.0 - 0.0
22/12:30am 17.7 17.3 15.3 86 1.4 S 11 13 6 7 1017.0 - 0.0
22/12:00am 18.4 18.0 15.3 82 1.8 SSW 11 15 6 8 1017.0 1016.9 0.0
 
Date/Time
WST
Temp
°C
App
Temp
°C
Dew
Point
Rel
Hum
%
Delta-T
°C
Wind Press
QNH
hPa
Press
MSL
hPa
Rain
since 9 am
mm
Dir
 
Spd
km/h
Gust
km/h
Spd
kts
Gust
kts
21/11:30pm 19.7 20.0 16.0 79 2.2 SSW 9 13 5 7 1017.2 - 0.0
21/11:00pm 20.3 19.9 16.1 77 2.5 SW 13 19 7 10 1017.2 - 0.0
21/10:30pm 20.6 19.5 16.3 76 2.6 SW 17 22 9 12 1017.3 - 0.0
21/10:00pm 21.1 19.0 16.3 74 2.9 SW 22 30 12 16 1017.6 - 0.0
21/09:30pm 21.3 19.5 16.1 72 3.1 SW 20 28 11 15 1017.8 - 0.0
21/09:00pm 21.4 19.8 15.9 71 3.3 SW 19 26 10 14 1017.6 1017.5 0.0
21/08:30pm 21.5 19.7 15.6 69 3.5 SW 19 26 10 14 1017.4 - 0.0
21/08:00pm 22.0 20.5 15.3 65 4.0 SW 17 22 9 12 1017.1 - 0.0
21/07:30pm 22.8 19.8 14.9 61 4.7 SW 24 28 13 15 1016.7 - 0.0
21/07:00pm 23.7 20.5 14.2 55 5.6 SW 24 32 13 17 1016.4 - 0.0
21/06:30pm 24.5 21.6 15.2 56 5.6 W 24 32 13 17 1016.1 - 0.0
21/06:00pm 26.7 23.4 14.1 46 7.5 SW 24 32 13 17 1015.8 1015.7 0.0
21/05:30pm 28.8 25.1 11.4 34 10.0 WSW 22 28 12 15 1015.4 - 0.0
21/05:00pm 29.8 26.0 11.2 31 10.7 SW 22 30 12 16 1014.9 - 0.0
21/04:30pm 30.7 26.2 11.4 30 11.2 WSW 26 33 14 18 1014.7 - 0.0
21/04:00pm 31.2 26.3 12.4 31 11.1 WSW 30 35 16 19 1014.7 - 0.0
21/03:30pm 32.6 27.6 12.1 28 12.1 WSW 30 37 16 20 1014.4 - 0.0
21/03:00pm 32.0 28.1 8.5 23 13.1 ENE 19 26 10 14 1014.7 1014.6 0.0
21/02:30pm 31.1 25.9 2.7 16 14.3 NNE 19 24 10 13 1014.8 - 0.0
21/02:00pm 30.6 26.1 6.2 21 13.0 ENE 19 24 10 13 1014.8 - 0.0
21/01:30pm 30.9 26.3 6.4 21 13.1 E 20 26 11 14 1015.1 - 0.0
21/01:00pm 30.4 25.4 4.8 19 13.3 E 20 30 11 16 1015.5 - 0.0
21/12:30pm 32.1 28.6 5.5 19 14.1 S 13 22 7 12 1015.9 - 0.0
21/12:00pm 31.1 27.5 4.8 19 13.7 WSW 13 20 7 11 1016.3 1016.2 0.0
21/11:30am 31.1 27.7 4.1 18 13.9 WSW 11 20 6 11 1016.7 - 0.0
21/11:00am 30.2 26.3 7.2 23 12.4 S 17 24 9 13 1017.0 - 0.0
21/10:30am 28.8 25.2 8.5 28 11.1 SW 17 24 9 13 1017.8 - 0.0
21/10:00am 27.7 25.2 9.7 32 10.0 S 13 24 7 13 1018.1 - 0.0
21/09:30am 26.6 23.8 10.0 35 9.2 S 15 22 8 12 1018.2 - 0.0
21/09:00am 25.5 22.3 11.1 40 8.1 SSW 19 28 10 15 1018.4 1018.3 0.0
21/08:30am 23.8 20.9 12.2 48 6.6 SSW 19 26 10 14 1018.4 - 0.0
21/08:00am 22.5 19.3 12.0 51 5.9 SSW 20 28 11 15 1018.3 - 0.0
21/07:30am 21.3 17.9 12.6 57 4.9 SSW 22 28 12 15 1018.1 - 0.0
21/07:00am 20.2 17.4 12.7 62 4.2 SSW 19 24 10 13 1018.0 - 0.0
21/06:30am 18.3 16.1 13.3 72 2.8 SW 17 20 9 11 1017.8 - 0.0
21/06:00am 17.1 14.9 13.2 78 2.2 SW 17 20 9 11 1017.3 1017.2 0.0
21/05:30am 17.4 15.1 12.9 75 2.5 SW 17 24 9 13 1017.1 - 0.0
21/05:00am 17.7 14.9 13.1 74 2.6 SW 20 28 11 15 1016.9 - 0.0
21/04:30am 17.6 15.0 13.7 78 2.2 SSW 20 26 11 14 1016.7 - 0.0
21/04:00am 17.8 15.3 14.1 79 2.1 SSW 20 26 11 14 1016.6 - 0.0
21/03:30am 17.9 15.5 14.4 80 2.0 SSW 20 24 11 13 1016.6 - 0.0
21/03:00am 18.7 16.0 14.5 76 2.4 SSW 22 32 12 17 1016.5 1016.4 0.0
21/02:30am 19.1 16.0 14.6 75 2.6 SSW 24 30 13 16 1016.5 - 0.0
21/02:00am 19.3 16.3 14.7 74 2.7 SSW 24 32 13 17 1016.4 - 0.0
21/01:30am 19.5 17.1 15.4 77 2.4 SSW 22 30 12 16 1016.7 - 0.0
21/01:00am 19.6 17.7 15.7 78 2.3 SSW 20 26 11 14 1016.6 - 0.0
21/12:30am 19.6 17.9 15.7 78 2.3 SSW 19 24 10 13 1016.7 - 0.0
21/12:00am 19.8 18.0 15.4 76 2.6 SW 19 24 10 13 1016.8 1016.7 0.0
 
Date/Time
WST
Temp
°C
App
Temp
°C
Dew
Point
Rel
Hum
%
Delta-T
°C
Wind Press
QNH
hPa
Press
MSL
hPa
Rain
since 9 am
mm
Dir
 
Spd
km/h
Gust
km/h
Spd
kts
Gust
kts
20/11:30pm 20.0 17.8 14.9 72 3.0 SSW 20 26 11 14 1017.0 - 0.0
20/11:00pm 20.1 17.4 14.6 70 3.2 SW 22 28 12 15 1017.3 - 0.0
20/10:30pm 20.3 17.8 15.2 72 3.0 SW 22 30 12 16 1017.3 - 0.0
20/10:00pm 20.6 18.3 15.7 73 2.9 SW 22 30 12 16 1017.4 - 0.0
20/09:30pm 20.9 18.2 15.7 72 3.1 SW 24 32 13 17 1017.3 - 0.0
20/09:00pm 21.1 18.2 15.2 69 3.5 SW 24 33 13 18 1017.2 1017.1 0.0
20/08:30pm 21.5 18.0 14.5 64 4.1 SW 26 32 14 17 1017.0 - 0.0
20/08:00pm 22.0 17.8 13.5 58 4.9 SW 28 35 15 19 1016.8 - 0.0
20/07:30pm 22.8 18.4 11.8 50 6.2 SW 26 33 14 18 1016.4 - 0.0
20/07:00pm 23.6 19.1 10.1 42 7.4 SW 24 32 13 17 1015.9 - 0.0
20/06:30pm 24.5 19.5 9.4 38 8.2 SW 26 35 14 19 1015.4 - 0.0
20/06:00pm 26.0 20.7 9.7 35 9.0 SW 28 39 15 21 1015.0 1014.9 0.0
20/05:30pm 26.7 20.5 10.0 35 9.3 WSW 33 43 18 23 1014.7 - 0.0
20/05:00pm 28.3 21.8 8.3 28 10.9 W 32 39 17 21 1014.5 - 0.0
20/04:30pm 28.6 22.3 7.4 26 11.4 W 30 41 16 22 1014.2 - 0.0
20/04:00pm 28.5 22.0 8.3 28 11.0 W 32 44 17 24 1014.3 - 0.0
20/03:30pm 28.3 22.1 9.4 30 10.5 WNW 32 41 17 22 1014.4 - 0.0
20/03:00pm 28.4 24.6 9.8 31 10.4 NW 20 32 11 17 1014.7 1014.6 0.0
20/02:30pm 27.6 23.6 9.0 31 10.2 NNE 20 28 11 15 1014.8 - 0.0
20/02:00pm 27.4 23.7 10.3 34 9.6 NE 20 28 11 15 1015.1 - 0.0
20/01:30pm 26.9 24.2 10.3 35 9.3 NE 15 20 8 11 1015.4 - 0.0
20/01:00pm 25.8 22.9 12.2 42 7.8 NNE 19 26 10 14 1015.8 - 0.0
20/12:30pm 26.1 22.6 12.2 42 8.0 NE 22 24 12 13 1016.1 - 0.0
20/12:00pm 25.7 22.3 12.5 44 7.6 E 22 26 12 14 1016.4 1016.3 0.0
20/11:30am 25.4 21.4 11.7 42 7.8 E 24 30 13 16 1016.7 - 0.0
20/11:00am 25.5 21.2 10.9 40 8.2 E 24 32 13 17 1017.0 - 0.0
20/10:30am 25.2 21.0 11.1 41 7.9 E 24 30 13 16 1017.3 - 0.0

Other Formats:

Comma delimited format used in spreadsheet applications
http://www.bom.gov.au/fwo/IDW60801/IDW60801.94302.axf

JavaScript Object Notation format (JSON) in row-major order
http://www.bom.gov.au/fwo/IDW60801/IDW60801.94302.json